Time;durP1;ratioP1;P1;durP2;ratioP2;P2;SDS_P1;SDS_P2;PMS_P1;PMS_P2;Temp;Humidity;BMP_temperature;BMP_pressure;BME280_temperature;BME280_humidity;BME280_pressure;Samples;Min_cycle;Max_cycle;Signal;HPM_P1;HPM_P2
2023/06/22 00:01:19;;;;;;;12.75;8.35;;;;;;;24.34;65.83;99913.72;4943691;28;20237;-88
2023/06/22 00:03:46;;;;;;;15.75;8.68;;;;;;;24.29;66.18;99910.84;4984879;28;20050;-87
2023/06/22 00:06:13;;;;;;;13.48;7.38;;;;;;;24.32;66.98;99913.13;4974248;28;20419;-87
2023/06/22 00:08:40;;;;;;;11.85;8.07;;;;;;;24.29;67.52;99897.28;4969208;28;20141;-87
2023/06/22 00:11:07;;;;;;;12.02;7.53;;;;;;;24.29;67.43;99904.59;4985632;28;20050;-87
2023/06/22 00:13:34;;;;;;;13.55;7.55;;;;;;;24.27;67.35;99889.41;4992033;28;20546;-87
2023/06/22 00:16:01;;;;;;;10.20;7.55;;;;;;;24.25;67.41;99887.97;4963617;28;20045;-87
2023/06/22 00:18:30;;;;;;;13.45;7.55;;;;;;;24.21;67.80;99886.72;4963702;28;20121;-87
2023/06/22 00:20:58;;;;;;;11.30;7.57;;;;;;;24.22;67.25;99882.94;4960050;28;20148;-87
2023/06/22 00:23:25;;;;;;;10.93;6.72;;;;;;;24.22;67.37;99894.66;4998883;28;20512;-88
2023/06/22 00:25:52;;;;;;;9.40;7.13;;;;;;;24.20;67.66;99907.63;4979270;28;20416;-87
2023/06/22 00:28:19;;;;;;;10.35;7.38;;;;;;;24.17;67.80;99891.78;4955303;28;20054;-86
2023/06/22 00:30:48;;;;;;;10.52;6.95;;;;;;;24.12;67.78;99886.19;4972939;28;20050;-88
2023/06/22 00:33:15;;;;;;;11.48;7.32;;;;;;;24.12;68.04;99897.06;4934954;28;20048;-87
2023/06/22 00:35:43;;;;;;;10.77;7.32;;;;;;;24.10;68.17;99899.16;4946245;28;20051;-88
2023/06/22 00:38:10;;;;;;;10.63;7.20;;;;;;;24.10;68.06;99893.72;4981512;28;20078;-88
2023/06/22 00:40:37;;;;;;;13.45;7.28;;;;;;;24.07;68.00;99896.88;4965935;28;20047;-87
2023/06/22 00:43:04;;;;;;;10.30;7.07;;;;;;;24.05;67.73;99902.53;4985525;28;20045;-87
2023/06/22 00:45:35;;;;;;;17.05;7.07;;;;;;;24.05;66.78;99907.13;4977379;28;20050;-88
2023/06/22 00:48:02;;;;;;;9.63;6.60;;;;;;;24.05;67.06;99920.69;4947765;28;20058;-87
2023/06/22 00:50:34;;;;;;;11.13;7.07;;;;;;;24.04;67.57;99913.59;4952647;28;20070;-87
2023/06/22 00:53:09;;;;;;;11.43;7.05;;;;;;;23.99;67.93;99918.84;4974716;28;20389;-88
2023/06/22 00:55:43;;;;;;;10.40;6.65;;;;;;;23.98;67.81;99919.91;4960547;28;20054;-88
2023/06/22 00:58:11;;;;;;;15.18;6.57;;;;;;;24.01;68.17;99938.44;4978225;28;20121;-88
2023/06/22 01:00:39;;;;;;;12.38;6.68;;;;;;;24.01;67.99;99955.56;4967722;28;20046;-88
2023/06/22 01:03:09;;;;;;;10.45;6.57;;;;;;;24.04;68.09;99989.53;4963324;28;20050;-87
2023/06/22 01:05:37;;;;;;;11.60;6.38;;;;;;;24.04;68.29;100044.66;4948926;28;20059;-88
2023/06/22 01:08:20;;;;;;;11.20;6.80;;;;;;;23.97;67.83;100119.81;4986476;28;20046;-88
2023/06/22 01:10:51;;;;;;;9.73;6.60;;;;;;;24.08;67.24;100196.13;4973804;28;20058;-88
2023/06/22 01:13:28;;;;;;;11.52;7.32;;;;;;;24.12;64.99;100210.91;4967596;28;20046;-88
2023/06/22 01:16:05;;;;;;;13.07;6.88;;;;;;;24.19;64.84;100233.44;4941013;28;20081;-88
2023/06/22 01:18:36;;;;;;;12.30;6.78;;;;;;;24.27;65.27;100206.03;4960458;28;20047;-89
2023/06/22 01:21:08;;;;;;;14.32;6.72;;;;;;;24.29;65.58;100087.25;4930797;28;20346;-87
2023/06/22 01:23:35;;;;;;;11.77;7.43;;;;;;;24.18;66.52;99982.97;4951366;28;20139;-88
2023/06/22 01:26:13;;;;;;;22.25;8.50;;;;;;;23.82;69.38;100000.75;4967231;28;20135;-89
2023/06/22 01:28:54;;;;;;;21.80;8.90;;;;;;;23.70;70.95;100016.03;4949127;28;20463;-87
2023/06/22 01:31:26;;;;;;;15.27;8.93;;;;;;;23.77;71.25;100025.00;4979937;28;20318;-88
2023/06/22 01:33:56;;;;;;;14.05;8.32;;;;;;;23.81;71.66;99993.69;4970575;28;20053;-88
2023/06/22 01:36:23;;;;;;;12.70;7.65;;;;;;;23.81;71.58;99955.72;4952833;28;20043;-87
2023/06/22 01:38:51;;;;;;;14.77;8.10;;;;;;;23.80;70.93;99929.63;4958057;28;20042;-88
2023/06/22 01:41:20;;;;;;;14.38;7.82;;;;;;;23.83;71.13;99912.09;4970242;28;20109;-88
2023/06/22 01:43:48;;;;;;;12.30;7.93;;;;;;;23.80;70.66;99899.00;4980737;28;20077;-88
2023/06/22 01:46:15;;;;;;;14.32;8.68;;;;;;;23.78;70.43;99895.66;4960774;28;20046;-88
2023/06/22 01:48:42;;;;;;;16.13;8.65;;;;;;;23.79;70.91;99894.63;4947299;28;20533;-88
2023/06/22 01:51:11;;;;;;;13.68;8.18;;;;;;;23.75;71.83;99894.22;4939343;28;20057;-88
2023/06/22 01:53:39;;;;;;;26.70;8.85;;;;;;;23.72;72.78;99902.81;4969707;28;20057;-88
2023/06/22 01:56:06;;;;;;;14.55;8.60;;;;;;;23.71;73.30;99911.97;4966744;28;20569;-88
2023/06/22 01:58:34;;;;;;;13.07;8.75;;;;;;;23.70;73.65;99918.41;4945264;28;20046;-88
2023/06/22 02:01:10;;;;;;;16.60;8.55;;;;;;;23.59;74.99;99925.38;4958351;28;20085;-88
2023/06/22 02:03:44;;;;;;;15.98;9.15;;;;;;;23.59;74.80;99944.34;4966250;28;20054;-89
2023/06/22 02:06:17;;;;;;;14.13;8.82;;;;;;;23.58;74.77;99948.13;4965668;28;20054;-87
2023/06/22 02:08:53;;;;;;;11.48;8.20;;;;;;;23.54;75.25;99941.47;4973030;28;20042;-87
2023/06/22 02:11:21;;;;;;;15.73;8.75;;;;;;;23.61;74.58;99946.88;4948044;28;20104;-88
2023/06/22 02:13:50;;;;;;;16.58;8.93;;;;;;;23.55;75.04;99943.13;4963989;28;20042;-88
2023/06/22 02:16:18;;;;;;;12.07;8.23;;;;;;;23.61;74.91;99936.84;4985666;28;20587;-87
2023/06/22 02:18:51;;;;;;;12.38;8.00;;;;;;;23.57;74.59;99934.78;4971919;28;20046;-87
2023/06/22 02:21:18;;;;;;;11.95;8.25;;;;;;;23.56;74.60;99942.09;4975149;28;20133;-87
2023/06/22 02:23:46;;;;;;;13.20;8.80;;;;;;;23.56;74.71;99946.66;4977035;28;20049;-87
2023/06/22 02:26:13;;;;;;;14.50;7.93;;;;;;;23.52;75.05;99948.97;4969482;28;20111;-87
2023/06/22 02:28:40;;;;;;;13.52;7.72;;;;;;;23.48;75.21;99936.91;4938751;28;20073;-86
2023/06/22 02:31:08;;;;;;;14.50;8.25;;;;;;;23.46;75.37;99939.03;4949952;28;20463;-88
2023/06/22 02:33:35;;;;;;;11.98;7.93;;;;;;;23.40;75.74;99939.88;4969839;28;20058;-87
2023/06/22 02:36:05;;;;;;;12.68;8.02;;;;;;;23.38;75.59;99952.81;4969528;28;20436;-87
2023/06/22 02:38:36;;;;;;;15.60;8.65;;;;;;;23.37;75.53;99956.56;4933922;28;20656;-87
2023/06/22 02:41:03;;;;;;;16.00;8.23;;;;;;;23.39;75.61;99949.91;4950084;28;20047;-87
2023/06/22 02:43:29;;;;;;;15.20;8.25;;;;;;;23.36;75.74;99946.81;4949897;28;20057;-88
2023/06/22 02:45:56;;;;;;;15.27;8.63;;;;;;;23.34;74.97;99948.88;4947887;28;20057;-87
2023/06/22 02:48:23;;;;;;;12.48;8.32;;;;;;;23.33;75.27;99944.50;4966082;28;20092;-88
2023/06/22 02:50:50;;;;;;;12.00;7.78;;;;;;;23.31;75.79;99944.72;4951026;28;20121;-87
2023/06/22 02:53:19;;;;;;;13.98;8.15;;;;;;;23.29;76.34;99946.00;4955618;28;20101;-87
2023/06/22 02:55:46;;;;;;;14.70;8.05;;;;;;;23.28;76.31;99942.47;4953378;28;20077;-87
2023/06/22 02:58:16;;;;;;;12.20;8.02;;;;;;;23.25;76.30;99932.03;4963227;28;20046;-87
2023/06/22 03:00:43;;;;;;;15.95;8.38;;;;;;;23.26;76.34;99931.00;4980977;28;20073;-87
2023/06/22 03:03:10;;;;;;;12.45;8.35;;;;;;;23.25;76.38;99931.22;4967905;28;20158;-87
2023/06/22 03:05:37;;;;;;;13.15;8.13;;;;;;;23.24;76.49;99941.22;4976957;28;20087;-88
2023/06/22 03:08:04;;;;;;;13.02;8.20;;;;;;;23.22;76.31;99937.88;4928718;28;20050;-87
2023/06/22 03:10:33;;;;;;;13.07;7.90;;;;;;;23.21;76.59;99932.69;4968154;28;20039;-87
2023/06/22 03:13:00;;;;;;;14.13;8.13;;;;;;;23.18;76.74;99928.56;4969373;28;20050;-88
2023/06/22 03:15:29;;;;;;;16.27;8.45;;;;;;;23.21;76.36;99935.41;4952374;28;20490;-87
2023/06/22 03:17:56;;;;;;;17.13;9.35;;;;;;;23.21;76.09;99930.00;4966482;28;20042;-88
2023/06/22 03:20:23;;;;;;;17.63;9.70;;;;;;;23.14;76.00;99930.00;4966783;28;20045;-88
2023/06/22 03:22:50;;;;;;;16.65;9.43;;;;;;;23.17;75.81;99935.00;4973544;28;20431;-88
2023/06/22 03:25:17;;;;;;;14.25;8.68;;;;;;;23.19;76.12;99931.03;4981681;28;20114;-87
2023/06/22 03:27:48;;;;;;;14.07;8.50;;;;;;;23.14;76.44;99925.41;4954087;28;20046;-89
2023/06/22 03:30:14;;;;;;;12.57;8.38;;;;;;;23.14;76.34;99919.19;4945400;28;20598;-88
2023/06/22 03:32:43;;;;;;;16.05;9.07;;;;;;;23.07;76.48;99910.25;4958850;28;20053;-87
2023/06/22 03:35:13;;;;;;;15.15;9.13;;;;;;;23.10;76.69;99912.53;5013724;28;20046;-87
2023/06/22 03:37:40;;;;;;;14.88;8.43;;;;;;;23.11;76.81;99909.59;4967993;28;20060;-86
2023/06/22 03:40:07;;;;;;;17.67;9.10;;;;;;;23.12;76.55;99908.56;4972950;28;20053;-86
2023/06/22 03:42:37;;;;;;;17.80;8.68;;;;;;;23.11;77.02;99911.50;4984976;28;20043;-88
2023/06/22 03:45:05;;;;;;;14.07;8.85;;;;;;;23.13;76.75;99922.94;4944477;28;20099;-87
2023/06/22 03:47:33;;;;;;;15.27;9.10;;;;;;;23.12;76.54;99918.56;4966986;28;20046;-88
2023/06/22 03:50:00;;;;;;;16.13;9.48;;;;;;;23.14;76.69;99914.59;4946820;28;20057;-88
2023/06/22 03:52:27;;;;;;;15.02;9.02;;;;;;;23.14;76.75;99914.59;4998710;28;20054;-87
2023/06/22 03:54:53;;;;;;;20.70;9.05;;;;;;;23.10;77.09;99915.22;4987153;28;20046;-88
2023/06/22 03:57:20;;;;;;;14.30;10.10;;;;;;;23.15;77.01;99920.84;4969436;28;20058;-88
2023/06/22 03:59:47;;;;;;;16.48;9.32;;;;;;;23.16;77.30;99908.97;4966381;28;20058;-89
2023/06/22 04:02:14;;;;;;;13.82;9.60;;;;;;;23.25;77.28;99928.50;4949345;28;20423;-88
2023/06/22 04:04:41;;;;;;;13.25;9.07;;;;;;;23.37;76.72;99921.34;4921269;28;20076;-88
2023/06/22 04:07:08;;;;;;;13.05;8.75;;;;;;;23.51;76.55;99922.94;4948719;28;20046;-87
2023/06/22 04:09:35;;;;;;;12.63;8.75;;;;;;;23.48;76.30;99917.94;4914035;28;20077;-88
2023/06/22 04:12:02;;;;;;;14.55;9.15;;;;;;;23.48;76.31;99928.78;4948468;28;20049;-87
2023/06/22 04:14:29;;;;;;;16.23;9.63;;;;;;;23.49;76.03;99926.91;4970795;28;20053;-89
2023/06/22 04:16:56;;;;;;;14.15;9.10;;;;;;;23.49;76.38;99924.22;4963739;28;20077;-88
2023/06/22 04:19:23;;;;;;;15.52;9.35;;;;;;;23.54;76.16;99929.81;4942889;28;20542;-88
2023/06/22 04:21:50;;;;;;;14.65;8.95;;;;;;;23.54;76.13;99924.38;4971181;28;20329;-87
2023/06/22 04:24:16;;;;;;;13.95;8.68;;;;;;;23.57;76.20;99911.22;4944511;28;20070;-88
2023/06/22 04:26:45;;;;;;;14.25;9.43;;;;;;;23.65;76.21;99912.81;4955996;28;20184;-87
2023/06/22 04:29:12;;;;;;;16.35;9.50;;;;;;;23.67;76.64;99909.91;4985753;28;20435;-88
2023/06/22 04:31:39;;;;;;;14.02;9.98;;;;;;;23.74;75.96;99910.72;4954567;28;20047;-87
2023/06/22 04:34:07;;;;;;;16.02;9.70;;;;;;;23.79;75.35;99910.91;4961547;28;20046;-87
2023/06/22 04:36:39;;;;;;;14.13;9.50;;;;;;;23.77;76.13;99908.41;4968691;28;20058;-88
2023/06/22 04:39:09;;;;;;;19.80;10.23;;;;;;;23.89;75.71;99904.97;4964066;28;20424;-87
2023/06/22 04:41:43;;;;;;;14.45;9.82;;;;;;;23.97;75.38;99908.25;4919252;28;20156;-88
2023/06/22 04:44:23;;;;;;;14.18;9.85;;;;;;;23.91;74.91;99900.97;4939842;28;20062;-85
2023/06/22 04:47:03;;;;;;;16.35;9.73;;;;;;;24.00;75.10;99902.38;4923601;28;20463;-88
2023/06/22 04:49:34;;;;;;;20.50;11.05;;;;;;;24.05;72.61;99899.81;4919399;28;20458;-88
2023/06/22 04:52:09;;;;;;;19.67;10.85;;;;;;;23.99;71.37;99895.28;4960262;28;20145;-87
2023/06/22 04:54:38;;;;;;;24.50;11.13;;;;;;;24.08;73.12;99893.13;4974271;28;20661;-88
2023/06/22 04:57:10;;;;;;;16.77;10.45;;;;;;;24.05;72.42;99894.41;4947095;28;20137;-86
2023/06/22 04:59:38;;;;;;;16.50;11.05;;;;;;;24.10;72.20;99893.72;4943657;28;20046;-87
2023/06/22 05:02:05;;;;;;;21.50;10.13;;;;;;;24.08;71.86;99889.56;4938868;28;20503;-87
2023/06/22 05:04:32;;;;;;;17.20;11.05;;;;;;;24.05;71.69;99888.16;4966730;28;20053;-88
2023/06/22 05:07:00;;;;;;;18.75;11.95;;;;;;;24.01;70.92;99895.88;4945587;28;20057;-87
2023/06/22 05:09:27;;;;;;;20.15;11.32;;;;;;;24.01;71.20;99895.88;4980479;28;20049;-88
2023/06/22 05:11:54;;;;;;;18.25;10.32;;;;;;;24.00;71.62;99898.81;4948364;28;20495;-88
2023/06/22 05:14:20;;;;;;;19.58;11.02;;;;;;;23.99;71.18;99895.28;4951712;28;20121;-88
2023/06/22 05:16:48;;;;;;;17.73;10.95;;;;;;;24.03;71.51;99898.38;4967626;28;20120;-88
2023/06/22 05:19:15;;;;;;;17.75;11.23;;;;;;;24.00;71.37;99891.50;4978396;28;20042;-87
2023/06/22 05:21:42;;;;;;;19.75;11.23;;;;;;;23.96;70.87;99882.16;4961826;28;20479;-88
2023/06/22 05:24:08;;;;;;;16.80;11.57;;;;;;;23.88;70.83;99882.44;4977423;28;20152;-88
2023/06/22 05:26:35;;;;;;;16.70;11.77;;;;;;;23.88;71.32;99887.03;4974865;28;20097;-89
2023/06/22 05:29:22;;;;;;;18.38;12.10;;;;;;;23.84;71.46;99875.81;4983531;28;20085;-88
2023/06/22 05:32:25;;;;;;;18.65;12.02;;;;;;;23.82;71.74;99865.19;4961085;28;20142;-88
2023/06/22 05:35:28;;;;;;;18.65;11.98;;;;;;;23.77;71.53;99865.00;4965199;28;20042;-88
2023/06/22 05:37:55;;;;;;;24.08;12.18;;;;;;;23.84;71.50;99864.97;4976595;28;20134;-88
2023/06/22 05:40:22;;;;;;;18.10;11.82;;;;;;;23.84;71.48;99854.13;4965889;28;20096;-87
2023/06/22 05:42:49;;;;;;;18.33;12.15;;;;;;;23.87;71.60;99866.41;4965696;28;20058;-89
2023/06/22 05:45:15;;;;;;;20.60;12.27;;;;;;;23.87;71.59;99863.69;4931038;28;20411;-88
2023/06/22 05:47:42;;;;;;;21.15;12.10;;;;;;;23.90;71.27;99858.66;4951392;28;20074;-87
2023/06/22 05:50:09;;;;;;;16.98;12.05;;;;;;;23.90;71.27;99858.66;4951709;28;20385;-90
2023/06/22 05:52:39;;;;;;;20.83;12.93;;;;;;;23.90;71.79;99845.09;4972547;28;20051;-88
2023/06/22 05:55:06;;;;;;;23.23;12.60;;;;;;;23.87;71.97;99844.72;4932045;28;20109;-89
2023/06/22 05:57:33;;;;;;;22.02;12.95;;;;;;;23.85;71.75;99858.47;4935525;28;20043;-90
2023/06/22 06:00:00;;;;;;;20.88;12.25;;;;;;;23.93;71.40;99860.91;4965400;28;20051;-88
2023/06/22 06:02:27;;;;;;;24.80;13.30;;;;;;;23.95;71.38;99852.56;4964651;28;20118;-89
2023/06/22 06:04:54;;;;;;;18.08;12.05;;;;;;;24.01;71.34;99849.75;4967654;28;20077;-88
2023/06/22 06:07:21;;;;;;;20.00;13.18;;;;;;;24.02;71.30;99850.63;4940791;28;20042;-89
2023/06/22 06:09:48;;;;;;;20.35;12.73;;;;;;;24.03;71.16;99853.09;4948427;28;20039;-88
2023/06/22 06:12:15;;;;;;;25.02;13.85;;;;;;;24.02;71.25;99839.78;4948990;28;20047;-88
2023/06/22 06:14:42;;;;;;;20.67;13.48;;;;;;;24.08;71.41;99840.75;4950312;28;20050;-87
2023/06/22 06:17:08;;;;;;;18.98;12.63;;;;;;;24.10;71.39;99844.06;4934403;28;20104;-89
2023/06/22 06:19:35;;;;;;;19.25;12.68;;;;;;;24.14;71.20;99837.94;4967417;28;20574;-89
2023/06/22 06:22:02;;;;;;;26.63;13.07;;;;;;;24.16;71.24;99841.28;4951326;28;20046;-88
2023/06/22 06:24:29;;;;;;;24.27;14.15;;;;;;;24.20;71.44;99839.78;4983522;28;20159;-88
2023/06/22 06:26:56;;;;;;;20.63;13.32;;;;;;;24.27;71.25;99850.53;4949805;28;20044;-89
2023/06/22 06:29:23;;;;;;;21.83;13.13;;;;;;;24.28;71.31;99849.50;4964867;28;20046;-89
2023/06/22 06:31:50;;;;;;;19.73;12.10;;;;;;;24.25;71.75;99834.50;4939564;28;20057;-89
2023/06/22 06:34:20;;;;;;;23.10;12.85;;;;;;;24.26;71.21;99838.88;4957511;28;20042;-87
2023/06/22 06:36:47;;;;;;;20.67;12.45;;;;;;;24.30;71.40;99841.13;4963003;28;20050;-88
2023/06/22 06:39:14;;;;;;;20.63;12.05;;;;;;;24.35;71.08;99838.56;4934363;28;20049;-88
2023/06/22 06:41:41;;;;;;;20.52;12.60;;;;;;;24.35;71.07;99835.84;4943016;28;20169;-88
2023/06/22 06:44:14;;;;;;;20.85;13.70;;;;;;;24.35;71.75;99828.56;4944330;28;20047;-88
2023/06/22 06:46:42;;;;;;;17.67;11.63;;;;;;;24.43;71.74;99832.84;4968142;28;20496;-89
2023/06/22 06:49:09;;;;;;;16.65;11.48;;;;;;;24.48;71.90;99846.63;4947788;28;20361;-88
2023/06/22 06:51:36;;;;;;;19.02;11.73;;;;;;;24.54;71.63;99856.56;4978351;28;20073;-89
2023/06/22 06:54:03;;;;;;;16.42;11.82;;;;;;;24.56;71.14;99854.44;4974839;28;20392;-88
2023/06/22 06:56:30;;;;;;;20.80;12.15;;;;;;;24.56;70.61;99854.44;4973785;28;20116;-88
2023/06/22 06:58:58;;;;;;;19.25;12.52;;;;;;;24.63;70.55;99849.78;4953909;28;20582;-87
2023/06/22 07:01:25;;;;;;;18.60;10.95;;;;;;;24.63;70.27;99832.66;4962323;28;20050;-89
2023/06/22 07:03:53;;;;;;;17.10;11.63;;;;;;;24.64;70.14;99818.00;4934768;28;20046;-89
2023/06/22 07:06:20;;;;;;;16.95;10.05;;;;;;;24.67;70.47;99817.56;4934750;28;20056;-89
2023/06/22 07:08:47;;;;;;;18.88;10.63;;;;;;;24.69;70.24;99818.97;4951025;28;20085;-88
2023/06/22 07:11:13;;;;;;;16.40;9.70;;;;;;;24.73;69.88;99818.50;4938755;28;20053;-89
2023/06/22 07:13:40;;;;;;;12.18;8.95;;;;;;;24.74;70.59;99810.16;4963270;28;20149;-89
2023/06/22 07:16:07;;;;;;;13.23;9.52;;;;;;;24.76;70.33;99802.59;4976800;28;20053;-87
2023/06/22 07:18:34;;;;;;;15.88;9.80;;;;;;;24.79;69.41;99804.84;4976684;28;20052;-88
2023/06/22 07:21:00;;;;;;;17.10;9.70;;;;;;;24.84;69.72;99793.31;4970092;28;20061;-87
2023/06/22 07:23:27;;;;;;;14.38;8.75;;;;;;;24.86;70.10;99788.50;4988636;28;20039;-88
2023/06/22 07:25:54;;;;;;;17.02;9.68;;;;;;;24.89;69.94;99782.59;4953941;28;20050;-88
2023/06/22 07:28:21;;;;;;;14.65;9.75;;;;;;;24.95;69.88;99791.69;4957282;28;20099;-87
2023/06/22 07:30:48;;;;;;;12.50;8.70;;;;;;;24.97;69.41;99784.16;4986032;28;20066;-88
2023/06/22 07:33:17;;;;;;;14.48;8.90;;;;;;;25.00;69.17;99779.06;4958989;28;20400;-87
2023/06/22 07:35:44;;;;;;;9.40;7.65;;;;;;;25.04;69.28;99772.13;4986700;28;20072;-87
2023/06/22 07:38:11;;;;;;;14.57;8.77;;;;;;;25.13;69.03;99783.47;4969209;28;20122;-87
2023/06/22 07:40:38;;;;;;;12.88;8.40;;;;;;;25.16;68.98;99779.47;4992999;28;20146;-89
2023/06/22 07:43:04;;;;;;;15.77;9.50;;;;;;;25.18;68.72;99769.22;4999919;28;20059;-89
2023/06/22 07:45:34;;;;;;;14.55;7.75;;;;;;;25.22;68.50;99765.00;4977774;28;20049;-87
2023/06/22 07:48:01;;;;;;;13.52;8.02;;;;;;;25.25;68.17;99754.47;4980345;28;20051;-88
2023/06/22 07:50:28;;;;;;;12.55;8.43;;;;;;;25.27;67.84;99746.91;4981841;28;20062;-88
2023/06/22 07:52:56;;;;;;;11.52;7.35;;;;;;;25.26;68.04;99747.97;4951919;28;20074;-88
2023/06/22 07:55:47;;;;;;;16.77;8.60;;;;;;;25.32;67.81;99747.03;4982217;28;20676;-88
2023/06/22 07:58:35;;;;;;;16.38;8.70;;;;;;;25.33;67.87;99747.88;4990390;28;20062;-88
2023/06/22 08:01:21;;;;;;;14.05;8.30;;;;;;;25.39;67.73;99759.69;4981184;28;20178;-89
2023/06/22 08:04:06;;;;;;;9.13;6.63;;;;;;;25.39;67.32;99755.09;4962504;28;20400;-88
2023/06/22 08:06:52;;;;;;;11.65;8.13;;;;;;;25.43;66.62;99763.59;4974225;28;20062;-88
2023/06/22 08:09:37;;;;;;;15.38;9.15;;;;;;;25.50;66.82;99750.72;4964038;28;20116;-89
2023/06/22 08:12:23;;;;;;;11.32;7.60;;;;;;;25.49;66.46;99752.63;4980549;28;20049;-88
2023/06/22 08:15:09;;;;;;;12.40;7.68;;;;;;;25.53;65.66;99742.91;4979256;28;20723;-88
2023/06/22 08:17:55;;;;;;;15.23;7.72;;;;;;;25.54;66.32;99736.44;4974777;28;20194;-88
2023/06/22 08:20:41;;;;;;;10.45;7.47;;;;;;;25.58;66.11;99735.94;4980867;28;20181;-88
2023/06/22 08:23:27;;;;;;;12.80;7.10;;;;;;;25.62;66.17;99728.94;4952897;28;20411;-88
2023/06/22 08:26:14;;;;;;;12.50;7.53;;;;;;;25.65;65.85;99725.78;4983065;28;20057;-88
2023/06/22 08:28:59;;;;;;;12.77;7.50;;;;;;;25.65;65.02;99728.50;4944016;28;20048;-88
2023/06/22 08:31:44;;;;;;;12.80;7.43;;;;;;;25.65;65.20;99720.34;4982489;28;20053;-88
2023/06/22 08:34:30;;;;;;;16.48;8.88;;;;;;;25.69;65.55;99730.47;4972179;28;20053;-88
2023/06/22 08:37:17;;;;;;;17.15;8.05;;;;;;;25.74;65.84;99732.50;4963802;28;20053;-88
2023/06/22 08:40:08;;;;;;;13.73;7.80;;;;;;;25.75;64.43;99723.28;4981461;28;20057;-88
2023/06/22 08:42:53;;;;;;;12.13;7.45;;;;;;;25.78;64.91;99748.13;4980040;28;20050;-88
2023/06/22 08:45:39;;;;;;;15.25;8.25;;;;;;;25.81;64.87;99744.09;4992689;28;20420;-88
2023/06/22 08:48:26;;;;;;;17.52;8.55;;;;;;;25.83;64.66;99743.88;4972022;28;20502;-88
2023/06/22 08:51:12;;;;;;;12.38;7.43;;;;;;;25.81;64.88;99735.09;4969960;28;20068;-88
2023/06/22 08:53:58;;;;;;;12.93;7.88;;;;;;;25.87;64.80;99739.63;4957602;28;20069;-87
2023/06/22 08:56:44;;;;;;;13.10;7.95;;;;;;;25.88;64.61;99747.53;4961415;28;20339;-88
2023/06/22 08:59:29;;;;;;;13.25;7.35;;;;;;;25.94;64.50;99745.75;4973736;28;20193;-87
2023/06/22 09:02:15;;;;;;;15.45;7.30;;;;;;;25.95;64.71;99750.97;4978980;28;20427;-88
2023/06/22 09:05:03;;;;;;;13.75;8.25;;;;;;;26.01;64.82;99753.81;4977603;28;20515;-88
2023/06/22 09:07:49;;;;;;;9.55;6.78;;;;;;;26.07;64.76;99769.16;4930940;28;20205;-89
2023/06/22 09:10:34;;;;;;;14.80;7.55;;;;;;;26.08;64.29;99760.78;4960569;28;20052;-88
2023/06/22 09:13:22;;;;;;;12.45;7.35;;;;;;;26.08;63.81;99762.63;4982560;28;20120;-88
2023/06/22 09:16:07;;;;;;;12.40;7.07;;;;;;;26.09;63.15;99773.31;4956725;28;20050;-88
2023/06/22 09:18:53;;;;;;;10.10;7.03;;;;;;;26.08;62.85;99777.09;4980896;28;20057;-87
2023/06/22 09:21:38;;;;;;;15.23;7.90;;;;;;;26.06;63.09;99790.13;4964743;28;20093;-87
2023/06/22 09:24:23;;;;;;;13.05;7.57;;;;;;;26.02;63.46;99805.25;4970463;28;20053;-88
2023/06/22 09:27:09;;;;;;;11.27;7.13;;;;;;;26.04;63.30;99803.13;4956370;28;20128;-88
2023/06/22 09:29:54;;;;;;;13.38;6.97;;;;;;;26.07;63.49;99775.44;4984735;28;20096;-88
2023/06/22 09:32:43;;;;;;;11.50;7.03;;;;;;;26.14;62.84;99756.25;4973752;28;20166;-88
2023/06/22 09:35:28;;;;;;;12.77;7.43;;;;;;;26.13;62.49;99743.69;4982195;28;20427;-88
2023/06/22 09:38:13;;;;;;;12.73;6.90;;;;;;;26.16;62.16;99743.25;5000129;28;20460;-89
2023/06/22 09:40:59;;;;;;;11.50;6.70;;;;;;;26.12;62.02;99723.00;4982985;28;20049;-88
2023/06/22 09:43:45;;;;;;;12.65;7.15;;;;;;;26.17;61.65;99720.41;4984873;28;20172;-87
2023/06/22 09:46:32;;;;;;;13.07;6.82;;;;;;;26.15;61.64;99706.19;4966251;28;20044;-88
2023/06/22 09:49:17;;;;;;;9.90;6.45;;;;;;;26.19;61.41;99696.50;4967339;28;20045;-87
2023/06/22 09:52:12;;;;;;;13.60;7.07;;;;;;;26.21;61.71;99683.47;4977696;28;20073;-88
2023/06/22 09:54:57;;;;;;;12.23;6.10;;;;;;;26.29;61.50;99685.81;4975385;28;20092;-89
2023/06/22 09:57:42;;;;;;;12.50;6.65;;;;;;;26.31;61.20;99674.69;4978419;28;20092;-88
2023/06/22 10:00:31;;;;;;;13.57;7.15;;;;;;;26.35;60.99;99682.09;4954946;28;20085;-87
2023/06/22 10:03:18;;;;;;;12.43;6.47;;;;;;;26.36;60.74;99682.94;4954334;28;20518;-88
2023/06/22 10:06:04;;;;;;;14.75;6.88;;;;;;;26.35;60.29;99687.53;4994570;28;20057;-88
2023/06/22 10:08:51;;;;;;;13.50;6.90;;;;;;;26.37;60.53;99692.75;4964191;28;20050;-88
2023/06/22 10:11:36;;;;;;;13.68;7.10;;;;;;;26.40;60.12;99684.09;4951462;28;20054;-89
2023/06/22 10:14:24;;;;;;;10.95;6.97;;;;;;;26.42;60.05;99679.25;4963637;28;20170;-89
2023/06/22 10:17:10;;;;;;;14.93;7.60;;;;;;;26.44;60.15;99674.38;4965522;28;20046;-88
2023/06/22 10:19:55;;;;;;;14.45;7.53;;;;;;;26.50;59.90;99672.56;4980019;28;21219;-88
2023/06/22 10:22:42;;;;;;;12.43;7.07;;;;;;;26.50;60.01;99662.50;4959264;28;20254;-88
2023/06/22 10:25:28;;;;;;;11.98;7.40;;;;;;;26.51;60.24;99657.88;4977599;28;20544;-88
2023/06/22 10:28:14;;;;;;;10.05;6.18;;;;;;;26.53;60.00;99661.22;4965541;28;20522;-87
2023/06/22 10:31:02;;;;;;;11.02;5.78;;;;;;;26.56;59.79;99663.44;4975438;28;20068;-88
2023/06/22 10:33:49;;;;;;;15.32;7.07;;;;;;;26.62;59.71;99670.66;4949150;28;20162;-88
2023/06/22 10:36:34;;;;;;;13.25;7.13;;;;;;;26.69;59.33;99674.06;4967805;28;20423;-89
2023/06/22 10:39:20;;;;;;;15.32;6.97;;;;;;;26.73;59.47;99668.94;4982886;28;20044;-87
2023/06/22 10:42:05;;;;;;;20.58;6.93;;;;;;;26.78;59.32;99655.41;4978150;28;20404;-88
2023/06/22 10:44:51;;;;;;;15.10;6.72;;;;;;;26.78;59.24;99645.31;4987333;28;20134;-88
2023/06/22 10:47:38;;;;;;;14.38;6.70;;;;;;;26.77;58.85;99619.16;4971760;28;20073;-88
2023/06/22 10:50:25;;;;;;;11.40;7.10;;;;;;;26.77;57.98;99621.88;4958467;28;20054;-88
2023/06/22 10:53:10;;;;;;;12.48;6.88;;;;;;;26.79;58.25;99625.19;4973754;28;20097;-88
2023/06/22 10:55:56;;;;;;;14.82;7.82;;;;;;;26.79;58.46;99627.91;4981795;28;20049;-88
2023/06/22 10:58:45;;;;;;;15.90;7.10;;;;;;;26.83;58.40;99615.44;4986296;28;20150;-88
2023/06/22 11:01:31;;;;;;;13.50;6.68;;;;;;;26.89;58.43;99616.34;4967066;28;20125;-88
2023/06/22 11:04:21;;;;;;;10.77;5.78;;;;;;;26.93;57.86;99609.31;4974872;28;20530;-89
2023/06/22 11:07:07;;;;;;;15.48;6.65;;;;;;;26.97;58.29;99601.47;4982270;28;20310;-88
2023/06/22 11:09:52;;;;;;;13.40;7.28;;;;;;;27.01;57.85;99602.63;4958817;28;20057;-89
2023/06/22 11:12:39;;;;;;;14.23;7.10;;;;;;;27.06;57.85;99605.44;4968105;28;20053;-88
2023/06/22 11:15:25;;;;;;;14.48;7.28;;;;;;;27.12;57.62;99611.78;4969433;28;20096;-89
2023/06/22 11:18:10;;;;;;;16.40;7.47;;;;;;;27.13;57.59;99603.38;4939191;28;20181;-87
2023/06/22 11:20:56;;;;;;;11.20;6.95;;;;;;;27.16;57.58;99607.50;4970101;28;20061;-89
2023/06/22 11:23:42;;;;;;;11.65;7.20;;;;;;;27.16;58.13;99605.59;4966112;28;20058;-88
2023/06/22 11:26:28;;;;;;;12.20;6.40;;;;;;;27.16;57.57;99602.84;4979085;28;20139;-89
2023/06/22 11:29:14;;;;;;;13.00;7.13;;;;;;;27.15;57.70;99600.41;4971564;28;20096;-88
2023/06/22 11:32:16;;;;;;;15.13;7.05;;;;;;;27.11;57.75;99583.69;4954575;28;20053;-88
2023/06/22 11:35:03;;;;;;;15.50;6.97;;;;;;;27.10;57.94;99592.16;4979544;28;20518;-89
2023/06/22 11:37:49;;;;;;;13.73;7.70;;;;;;;27.11;57.88;99596.50;5005453;28;20183;-88
2023/06/22 11:40:36;;;;;;;14.93;7.10;;;;;;;27.12;57.87;99598.16;4952500;28;20062;-87
2023/06/22 11:43:21;;;;;;;13.35;7.60;;;;;;;27.14;57.55;99596.81;4979583;28;20062;-87
2023/06/22 11:46:06;;;;;;;12.07;7.30;;;;;;;27.15;57.44;99587.59;4972664;28;20057;-86
2023/06/22 11:48:52;;;;;;;14.45;7.28;;;;;;;27.17;57.57;99593.63;4953015;28;20137;-88
2023/06/22 11:51:38;;;;;;;16.98;7.35;;;;;;;27.19;58.22;99596.94;4949434;28;20053;-89
2023/06/22 11:54:23;;;;;;;12.63;7.63;;;;;;;27.20;57.98;99586.88;4955454;28;20065;-88
2023/06/22 11:57:09;;;;;;;13.63;7.15;;;;;;;27.26;57.74;99580.41;4978634;28;20045;-88